sim
Sign-in with your pilot id or email,
or register
Callsign
Passwort

Schedule Details

Flight Number: OEO4089
Departure: Madrid Barajas Airport (LEMD) at 06:55
Arrival: Munich Airport (EDDM) at 09:20

Weather Information
Getting current METAR information for LEMD 230930Z 23010KT 200V260 9999 FEW030 BKN065 20/13 Q1015 NOSIG
Getting current METAR information for EDDM 230920Z 26009KT 6000 SHRA SCT012 FEW015CB BKN020 15/14 Q1011 TEMPO 4000

Schedule Frequency

Route Map